Airfield :











YOU CAN JOIN US ON...

 
LOGIN :

Register | Disclaimer

   EN    FR    IT 

 









Legend :    VFR   Marginal VFR   IFR   Intensive IFR   Very Intensive IFR
Visi :
Ceiling :
>= 8 km
>= 3000ft
5 to 8 km
1000 to 3000 ft
1500m to 5 km
500 to 1000 ft
800 to 1500m
200 to 500 ft
< 800m
< 200 ft
Symbols :   Thunderstorms  Fog  Heavy snow  Heavy precipitations  Wind > 20 kt







- Airport Elevation : 2205 ft


KVGT - North Las Vegas

CURRENT METAR :
  • 260553Z AUTO 19006KT 10SM CLR 30/M08 A2979 RMK AO2 SLP075 T03001083 10372 20300 51023

EXPIRED METARs :
  • 260453Z AUTO 19010KT 10SM CLR 31/M10 A2978 RMK AO2 SLP071 T03111100
  • 260353Z AUTO 19012KT 10SM CLR 32/M08 A2975 RMK AO2 SLP062 T03221083

TAF KVGT
Valid from the 26 at 06:00 until the 27 at 06:00 UTC


260520Z 2606/2706 20011KT P6SM SCT250
FM261000 15006KT P6SM SCT250
FM261700 17011G18KT P6SM SCT250
FM262300 20016G25KT P6SM SCT250
KZLA FIR / North America



MET'MAP, your aeronautical weather chart ! - Copyright ORBIFLY December 2007 - Disclaimer

ORBIFLY MET'MAP TEAM :

Programming & Development : Alexandra Zaïnal
Concept & Development : Baudouin d'Aumeries
Co-Development & Prog : Marc-Olivier Méhu
Technical & hardware support : Manuel Goepfert

Contact : metmap@orbifly.com




SOURCES & CREDITS :

   NOAA       Earth
Advisory